createdAt,value
2022-12-23T00:01:34.523Z,20.43
2022-12-23T00:04:01.273Z,43.03
2022-12-23T00:06:28.038Z,41.23
2022-12-23T00:08:58.176Z,26.40
2022-12-23T00:11:27.007Z,23.47
2022-12-23T00:14:20.126Z,29.07
2022-12-23T00:16:50.001Z,26.13
2022-12-23T00:19:16.688Z,27.60
2022-12-23T00:21:43.411Z,25.93
2022-12-23T00:24:12.044Z,28.93
2022-12-23T00:26:40.986Z,29.53
2022-12-23T00:29:13.760Z,26.13
2022-12-23T00:31:40.544Z,28.10
2022-12-23T00:34:07.370Z,21.73
2022-12-23T00:36:34.321Z,17.53
2022-12-23T00:39:19.669Z,18.33
2022-12-23T00:42:04.847Z,16.10
2022-12-23T00:44:31.683Z,16.40
2022-12-23T00:46:58.472Z,16.37
2022-12-23T00:49:43.641Z,19.60
2022-12-23T00:52:15.414Z,12.13
2022-12-23T00:54:42.292Z,15.47
2022-12-23T00:57:09.010Z,11.50
2022-12-23T00:59:35.907Z,14.07
2022-12-23T01:02:21.325Z,13.00
2022-12-23T01:05:06.564Z,17.00
2022-12-23T01:07:33.366Z,18.47
2022-12-23T01:10:00.085Z,16.73
2022-12-23T01:12:27.194Z,18.13
2022-12-23T01:14:53.975Z,15.67
2022-12-23T01:17:20.864Z,19.53
2022-12-23T01:19:47.691Z,23.00
2022-12-23T01:22:14.433Z,24.03
2022-12-23T01:24:41.054Z,20.97
2022-12-23T01:27:07.920Z,17.60
2022-12-23T01:29:34.577Z,21.23
2022-12-23T01:32:01.441Z,18.50
2022-12-23T01:34:34.253Z,23.00
2022-12-23T01:37:03.155Z,23.60
2022-12-23T01:39:29.825Z,21.73
2022-12-23T01:42:15.363Z,21.30
2022-12-23T01:45:02.290Z,22.00
2022-12-23T01:47:43.908Z,21.80
2022-12-23T01:50:37.766Z,21.97
2022-12-23T01:53:26.486Z,21.37
2022-12-23T01:55:57.517Z,23.53
2022-12-23T01:58:36.452Z,20.57
2022-12-23T02:01:22.189Z,24.97
2022-12-23T02:03:53.362Z,22.40
2022-12-23T02:06:43.539Z,26.30
2022-12-23T02:09:17.932Z,24.43
2022-12-23T02:12:02.363Z,23.23
2022-12-23T02:14:55.118Z,25.23
2022-12-23T02:17:41.410Z,25.53
2022-12-23T02:20:40.572Z,23.77
2022-12-23T02:23:44.479Z,23.33
2022-12-23T02:27:08.200Z,29.67
2022-12-23T02:30:08.035Z,27.37
2022-12-23T02:33:41.385Z,26.80
2022-12-23T02:36:20.095Z,27.97
2022-12-23T02:39:14.295Z,26.07
2022-12-23T02:41:57.454Z,26.37
2022-12-23T02:44:29.868Z,27.73
2022-12-23T02:47:06.317Z,27.10
2022-12-23T02:49:39.432Z,25.60
2022-12-23T02:52:13.170Z,27.07
2022-12-23T02:54:56.095Z,26.93
2022-12-23T02:57:33.645Z,31.17
2022-12-23T03:00:03.091Z,24.67
2022-12-23T03:02:34.239Z,31.10
2022-12-23T03:05:01.404Z,26.07
2022-12-23T03:07:41.427Z,26.13
2022-12-23T03:10:19.449Z,27.47
2022-12-23T03:13:11.759Z,28.80
2022-12-23T03:16:00.886Z,28.20
2022-12-23T03:18:45.142Z,27.90
2022-12-23T03:21:35.562Z,27.67
2022-12-23T03:24:18.869Z,29.00
2022-12-23T03:26:57.532Z,30.57
2022-12-23T03:30:04.963Z,31.33
2022-12-23T03:32:55.814Z,30.63
2022-12-23T03:35:38.331Z,30.13
2022-12-23T03:38:07.573Z,33.23
2022-12-23T03:40:58.201Z,29.70
2022-12-23T03:43:33.060Z,31.77
2022-12-23T03:46:08.688Z,33.93
2022-12-23T03:49:07.104Z,27.17
2022-12-23T03:51:50.811Z,26.30
2022-12-23T03:54:27.172Z,27.53
2022-12-23T03:57:03.081Z,27.97
2022-12-23T03:59:45.122Z,26.97
2022-12-23T04:02:42.242Z,29.03
2022-12-23T04:05:27.180Z,27.67
2022-12-23T04:08:01.495Z,31.40
2022-12-23T04:10:28.614Z,29.33
2022-12-23T04:12:55.507Z,31.53
2022-12-23T04:15:25.271Z,34.00
2022-12-23T04:17:54.493Z,33.07
2022-12-23T04:20:21.477Z,29.13
2022-12-23T04:22:48.656Z,33.97
2022-12-23T04:25:17.215Z,28.10
2022-12-23T04:27:44.382Z,26.17
2022-12-23T04:30:13.856Z,26.17
2022-12-23T04:32:41.939Z,28.33
2022-12-23T04:35:09.865Z,26.83
2022-12-23T04:37:36.782Z,35.80
2022-12-23T04:40:04.825Z,28.60
2022-12-23T04:42:31.514Z,28.53
2022-12-23T04:44:58.475Z,26.77
2022-12-23T04:47:25.206Z,31.40
2022-12-23T04:49:51.858Z,30.53
2022-12-23T04:52:18.612Z,28.53
2022-12-23T04:54:46.371Z,31.87
2022-12-23T04:57:13.777Z,26.30
2022-12-23T04:59:40.479Z,31.93
2022-12-23T05:02:08.328Z,31.03
2022-12-23T05:04:35.222Z,28.93
2022-12-23T05:07:02.028Z,25.33
2022-12-23T05:09:28.733Z,28.93
2022-12-23T05:11:55.626Z,31.30
2022-12-23T05:14:22.401Z,28.40
2022-12-23T05:16:49.203Z,26.00
2022-12-23T05:19:16.007Z,29.70
2022-12-23T05:21:42.748Z,25.73
2022-12-23T05:24:09.552Z,24.03
2022-12-23T05:26:36.337Z,26.50
2022-12-23T05:29:03.124Z,22.20
2022-12-23T05:31:29.816Z,24.97
2022-12-23T05:33:59.585Z,23.93
2022-12-23T05:36:30.995Z,24.60
2022-12-23T05:38:57.815Z,21.23
2022-12-23T05:41:24.618Z,25.50
2022-12-23T05:43:51.383Z,31.70
2022-12-23T05:46:24.280Z,34.23
2022-12-23T05:48:53.243Z,29.93
2022-12-23T05:51:20.116Z,36.27
2022-12-23T05:53:46.934Z,49.77
2022-12-23T05:56:13.761Z,39.57
2022-12-23T05:58:40.579Z,36.73
2022-12-23T06:01:07.845Z,35.30
2022-12-23T06:03:34.941Z,33.57
2022-12-23T06:06:01.818Z,35.50
2022-12-23T06:08:28.519Z,34.17
2022-12-23T06:10:55.348Z,35.07
2022-12-23T06:13:22.030Z,35.70
2022-12-23T06:15:48.744Z,42.87
2022-12-23T06:18:15.523Z,44.83
2022-12-23T06:20:45.034Z,39.63
2022-12-23T06:23:11.731Z,40.27
2022-12-23T06:25:38.456Z,50.27
2022-12-23T06:28:07.505Z,47.47
2022-12-23T06:30:34.336Z,48.67
2022-12-23T06:33:01.094Z,48.17
2022-12-23T06:35:27.874Z,57.07
2022-12-23T06:37:54.579Z,56.57
2022-12-23T06:40:21.308Z,54.27
2022-12-23T06:42:48.137Z,59.17
2022-12-23T06:45:14.905Z,66.53
2022-12-23T06:47:41.677Z,61.90
2022-12-23T06:50:09.241Z,63.63
2022-12-23T06:52:35.930Z,57.77
2022-12-23T06:55:02.684Z,67.40
2022-12-23T06:57:29.403Z,59.83
2022-12-23T06:59:56.128Z,60.33
2022-12-23T07:02:23.162Z,52.73
2022-12-23T07:04:49.869Z,52.77
2022-12-23T07:07:16.546Z,42.37
2022-12-23T07:09:43.248Z,42.13
2022-12-23T07:12:10.153Z,50.00
2022-12-23T07:14:36.810Z,40.83
2022-12-23T07:17:03.630Z,46.40
2022-12-23T07:19:30.413Z,44.60
2022-12-23T07:21:57.207Z,39.33
2022-12-23T07:24:23.923Z,36.97
2022-12-23T07:26:51.773Z,44.20
2022-12-23T07:29:18.458Z,38.20
2022-12-23T07:31:45.358Z,39.93
2022-12-23T07:34:12.139Z,40.23
2022-12-23T07:36:38.810Z,41.67
2022-12-23T07:39:05.609Z,38.40
2022-12-23T07:41:32.383Z,36.60
2022-12-23T07:44:06.609Z,39.67
2022-12-23T07:46:33.475Z,37.67
2022-12-23T07:49:00.206Z,37.33
2022-12-23T07:51:26.987Z,41.47
2022-12-23T07:53:53.701Z,35.47
2022-12-23T07:56:20.823Z,37.77
2022-12-23T07:58:52.579Z,40.93
2022-12-23T08:01:21.253Z,34.73
2022-12-23T08:03:48.719Z,38.57
2022-12-23T08:06:16.635Z,39.70
2022-12-23T08:08:45.940Z,34.40
2022-12-23T08:11:14.962Z,39.93
2022-12-23T08:13:44.508Z,39.10
2022-12-23T08:16:12.432Z,37.33
2022-12-23T08:18:41.443Z,41.07
2022-12-23T08:21:19.315Z,39.63
2022-12-23T08:23:47.620Z,40.63
2022-12-23T08:26:18.562Z,40.10
2022-12-23T08:28:45.899Z,42.13
2022-12-23T08:31:15.868Z,42.93
2022-12-23T08:33:46.523Z,41.63
2022-12-23T08:36:23.357Z,43.10
2022-12-23T08:38:55.415Z,50.13
2022-12-23T08:41:27.646Z,39.97
2022-12-23T08:43:54.438Z,50.07
2022-12-23T08:46:21.399Z,48.17
2022-12-23T08:48:49.769Z,46.23
2022-12-23T08:51:20.204Z,40.07
2022-12-23T08:53:48.194Z,39.87
2022-12-23T08:56:21.308Z,42.70
2022-12-23T08:58:52.940Z,40.23
2022-12-23T09:01:24.123Z,36.00
2022-12-23T09:03:51.503Z,39.73
2022-12-23T09:06:28.527Z,34.23
2022-12-23T09:08:56.215Z,32.97
2022-12-23T09:11:30.142Z,34.50
2022-12-23T09:14:02.114Z,32.27
2022-12-23T09:16:29.746Z,33.00
2022-12-23T09:18:56.690Z,36.57
2022-12-23T09:21:24.545Z,32.60
2022-12-23T09:23:51.991Z,27.60
2022-12-23T09:26:27.368Z,36.60
2022-12-23T09:28:54.742Z,34.23
2022-12-23T09:31:22.809Z,35.27
2022-12-23T09:33:52.212Z,29.27
2022-12-23T09:36:20.247Z,32.97
2022-12-23T09:38:47.286Z,31.73
2022-12-23T09:42:18.709Z,30.63
2022-12-23T09:45:01.183Z,30.90
2022-12-23T09:47:29.581Z,30.77
2022-12-23T09:50:01.225Z,33.47
2022-12-23T09:52:53.796Z,32.60
2022-12-23T09:55:23.924Z,40.43
2022-12-23T09:58:02.038Z,32.60
2022-12-23T10:00:39.673Z,36.20
2022-12-23T10:03:26.087Z,30.77
2022-12-23T10:06:17.852Z,34.17
2022-12-23T10:08:47.858Z,45.93
2022-12-23T10:11:29.790Z,37.73
2022-12-23T10:14:28.771Z,38.40
2022-12-23T10:17:06.969Z,34.00
2022-12-23T10:19:41.859Z,41.20
2022-12-23T10:22:19.532Z,34.10
2022-12-23T10:24:48.236Z,38.33
2022-12-23T10:27:41.049Z,36.00
2022-12-23T10:30:41.977Z,28.43
2022-12-23T10:33:18.714Z,36.17
2022-12-23T10:36:23.537Z,31.77
2022-12-23T10:39:02.662Z,36.23
2022-12-23T10:42:04.262Z,31.67
2022-12-23T10:45:00.202Z,26.13
2022-12-23T10:47:51.743Z,31.97
2022-12-23T10:51:20.488Z,27.00
2022-12-23T10:54:06.530Z,27.57
2022-12-23T10:56:33.524Z,24.50
2022-12-23T10:59:01.460Z,23.67
2022-12-23T11:01:31.256Z,26.57
2022-12-23T11:04:08.521Z,26.13
2022-12-23T11:06:41.003Z,27.83
2022-12-23T11:09:22.528Z,34.23
2022-12-23T11:12:00.823Z,36.37
2022-12-23T11:14:42.180Z,38.40
2022-12-23T11:17:24.866Z,40.90
2022-12-23T11:20:16.297Z,39.20
2022-12-23T11:22:56.613Z,38.30
2022-12-23T11:25:36.964Z,36.53
2022-12-23T11:28:11.193Z,33.60
2022-12-23T11:30:56.258Z,35.40
2022-12-23T11:33:32.593Z,36.27
2022-12-23T11:36:23.975Z,35.90
2022-12-23T11:39:07.800Z,39.53
2022-12-23T11:41:43.922Z,46.83
2022-12-23T11:44:28.860Z,44.67
2022-12-23T11:46:55.617Z,34.27
2022-12-23T11:49:49.546Z,31.17
2022-12-23T11:52:21.129Z,29.77
2022-12-23T11:54:57.355Z,29.27
2022-12-23T11:57:47.599Z,33.33
2022-12-23T12:00:20.463Z,30.07
2022-12-23T12:02:52.969Z,30.10
2022-12-23T12:05:25.343Z,32.23
2022-12-23T12:07:52.727Z,36.80
2022-12-23T12:10:28.010Z,39.13
2022-12-23T12:13:03.689Z,38.23
2022-12-23T12:16:02.543Z,33.30
2022-12-23T12:18:29.802Z,33.57
2022-12-23T12:21:06.924Z,31.63
2022-12-23T12:23:48.715Z,49.17
2022-12-23T12:26:32.559Z,28.53
2022-12-23T12:29:08.051Z,33.03
2022-12-23T12:31:42.459Z,29.00
2022-12-23T12:34:44.311Z,25.80
2022-12-23T12:37:41.814Z,29.93
2022-12-23T12:40:26.854Z,28.57
2022-12-23T12:43:24.220Z,29.17
2022-12-23T12:46:34.145Z,27.13
2022-12-23T12:49:26.856Z,25.47
2022-12-23T12:52:09.033Z,26.00
2022-12-23T12:54:45.769Z,23.07
2022-12-23T12:57:19.411Z,26.20
2022-12-23T12:59:51.215Z,29.00
2022-12-23T13:03:04.680Z,27.23
2022-12-23T13:05:54.451Z,26.90
2022-12-23T13:09:02.905Z,25.03
2022-12-23T13:11:45.464Z,48.40
2022-12-23T13:14:27.472Z,34.73
2022-12-23T13:17:28.809Z,25.00
2022-12-23T13:20:31.414Z,26.07
2022-12-23T13:23:21.056Z,25.40
2022-12-23T13:26:05.143Z,23.00
2022-12-23T13:28:53.550Z,33.40
2022-12-23T13:32:01.120Z,27.13
2022-12-23T13:34:47.856Z,25.23
2022-12-23T13:37:26.103Z,26.23
2022-12-23T13:40:42.496Z,23.73
2022-12-23T13:43:21.507Z,25.33
2022-12-23T13:45:50.012Z,25.63
2022-12-23T13:48:47.173Z,26.43
2022-12-23T13:51:30.642Z,23.83
2022-12-23T13:54:15.518Z,25.67
2022-12-23T13:57:09.403Z,21.03
2022-12-23T13:59:43.120Z,21.63
2022-12-23T14:02:36.339Z,20.43
2022-12-23T14:05:08.380Z,18.93
2022-12-23T14:07:38.583Z,20.30
2022-12-23T14:10:22.652Z,22.30
2022-12-23T14:12:51.892Z,23.00
2022-12-23T14:15:46.272Z,23.47
2022-12-23T14:18:23.603Z,24.60
2022-12-23T14:21:14.864Z,21.17
2022-12-23T14:24:20.225Z,22.83
2022-12-23T14:27:17.097Z,21.77
2022-12-23T14:30:01.423Z,21.00
2022-12-23T14:32:55.184Z,23.30
2022-12-23T14:35:42.193Z,21.13
2022-12-23T14:38:32.066Z,24.87
2022-12-23T14:41:44.783Z,22.80
2022-12-23T14:44:21.653Z,21.43
2022-12-23T14:46:48.425Z,22.53
2022-12-23T14:49:39.943Z,27.90
2022-12-23T14:52:38.023Z,25.37
2022-12-23T14:55:32.628Z,23.43
2022-12-23T14:58:17.793Z,21.30
2022-12-23T15:01:32.376Z,20.20
2022-12-23T15:04:05.337Z,24.80
2022-12-23T15:06:44.325Z,24.43
2022-12-23T15:09:30.746Z,24.97
2022-12-23T15:12:06.433Z,25.40
2022-12-23T15:14:43.870Z,25.23
2022-12-23T15:17:35.510Z,30.10
2022-12-23T15:20:13.984Z,26.83
2022-12-23T15:22:44.381Z,27.73
2022-12-23T15:25:24.610Z,30.53
2022-12-23T15:28:01.155Z,37.13
2022-12-23T15:30:52.415Z,28.80
2022-12-23T15:36:12.105Z,27.50
2022-12-23T15:38:39.456Z,29.30
2022-12-23T15:41:16.107Z,27.33
2022-12-23T15:43:44.632Z,28.87
2022-12-23T15:46:28.643Z,33.60
2022-12-23T15:48:56.865Z,32.57
2022-12-23T15:52:06.273Z,32.53
2022-12-23T15:54:30.754Z,38.60
2022-12-23T15:57:00.200Z,37.47
2022-12-23T15:59:39.405Z,31.57
2022-12-23T16:05:38.544Z,30.37
2022-12-23T16:08:32.859Z,32.77
2022-12-23T16:11:19.711Z,32.07
2022-12-23T16:14:02.941Z,37.80
2022-12-23T16:16:48.411Z,31.10
2022-12-23T16:19:37.072Z,34.90
2022-12-23T16:22:33.081Z,32.33
2022-12-23T16:25:02.628Z,34.83
2022-12-23T16:28:02.630Z,31.27
2022-12-23T16:30:36.483Z,32.77
2022-12-23T16:33:07.094Z,34.33
2022-12-23T16:35:41.002Z,34.13
2022-12-23T16:38:13.689Z,38.67
2022-12-23T16:40:42.141Z,40.80
2022-12-23T16:43:08.873Z,38.37
2022-12-23T16:45:36.953Z,41.13
2022-12-23T16:48:25.015Z,35.13
2022-12-23T16:50:53.245Z,38.67
2022-12-23T16:53:20.082Z,35.33
2022-12-23T16:55:53.690Z,34.40
2022-12-23T16:58:25.432Z,34.67
2022-12-23T17:00:53.053Z,55.57
2022-12-23T17:03:20.927Z,54.60
2022-12-23T17:05:48.543Z,33.03
2022-12-23T17:08:15.936Z,39.30
2022-12-23T17:10:46.789Z,34.10
2022-12-23T17:13:19.073Z,36.20
2022-12-23T17:15:45.817Z,31.30
2022-12-23T17:18:15.934Z,29.67
2022-12-23T17:20:46.002Z,32.10
2022-12-23T17:23:24.915Z,28.10
2022-12-23T17:25:52.599Z,32.77
2022-12-23T17:28:19.674Z,30.93
2022-12-23T17:30:46.384Z,30.43
2022-12-23T17:33:18.420Z,28.80
2022-12-23T17:35:45.249Z,30.77
2022-12-23T17:38:16.542Z,29.23
2022-12-23T17:40:46.763Z,32.33
2022-12-23T17:43:18.106Z,31.50
2022-12-23T17:45:45.469Z,33.10
2022-12-23T17:48:20.604Z,31.60
2022-12-23T17:50:49.416Z,28.73
2022-12-23T17:53:18.957Z,32.77
2022-12-23T17:55:45.946Z,27.87
2022-12-23T17:58:13.937Z,28.03
2022-12-23T18:00:40.896Z,31.40
2022-12-23T18:03:20.240Z,32.10
2022-12-23T18:05:47.070Z,30.90
2022-12-23T18:08:13.907Z,29.30
2022-12-23T18:10:40.831Z,30.13
2022-12-23T18:13:14.232Z,31.90
2022-12-23T18:15:43.208Z,29.80
2022-12-23T18:18:20.465Z,31.13
2022-12-23T18:20:55.375Z,30.23
2022-12-23T18:23:28.352Z,31.30
2022-12-23T18:25:56.774Z,33.97
2022-12-23T18:28:24.613Z,34.33
2022-12-23T18:30:54.766Z,27.40
2022-12-23T18:33:21.855Z,32.60
2022-12-23T18:35:50.079Z,32.37
2022-12-23T18:38:18.439Z,34.80
2022-12-23T18:40:45.603Z,31.70
2022-12-23T18:43:25.229Z,37.80
2022-12-23T18:45:53.923Z,33.87
2022-12-23T18:48:21.674Z,37.30
2022-12-23T18:50:48.887Z,35.40
2022-12-23T18:53:24.608Z,37.10
2022-12-23T18:55:53.748Z,36.43
2022-12-23T18:58:21.448Z,38.63
2022-12-23T19:00:50.351Z,37.37
2022-12-23T19:03:30.620Z,37.73
2022-12-23T19:06:06.402Z,46.60
2022-12-23T19:08:35.859Z,49.03
2022-12-23T19:11:08.884Z,45.77
2022-12-23T19:13:35.752Z,38.03
2022-12-23T19:16:02.550Z,37.93
2022-12-23T19:18:29.381Z,46.17
2022-12-23T19:20:56.175Z,40.73
2022-12-23T19:23:23.061Z,36.73
2022-12-23T19:25:55.185Z,36.33
2022-12-23T19:28:22.941Z,35.93
2022-12-23T19:30:49.961Z,33.20
2022-12-23T19:33:17.047Z,35.70
2022-12-23T19:35:44.538Z,34.57
2022-12-23T19:38:12.370Z,31.33
2022-12-23T19:40:39.625Z,29.47
2022-12-23T19:43:06.380Z,33.97
2022-12-23T19:45:33.239Z,32.53
2022-12-23T19:47:59.919Z,27.77
2022-12-23T19:50:27.251Z,33.03
2022-12-23T19:52:56.064Z,30.30
2022-12-23T19:55:23.531Z,31.43
2022-12-23T19:57:50.487Z,26.07
2022-12-23T20:00:17.265Z,33.17
2022-12-23T20:02:44.225Z,30.93
2022-12-23T20:05:11.015Z,33.17
2022-12-23T20:07:37.814Z,30.87
2022-12-23T20:10:06.194Z,27.20
2022-12-23T20:12:33.092Z,28.30
2022-12-23T20:14:59.873Z,36.43
2022-12-23T20:17:26.613Z,33.13
2022-12-23T20:19:53.452Z,32.03
2022-12-23T20:22:20.171Z,36.80
2022-12-23T20:24:46.836Z,33.67
2022-12-23T20:27:15.912Z,33.37
2022-12-23T20:29:43.068Z,30.80
2022-12-23T20:32:10.536Z,37.17
2022-12-23T20:34:39.889Z,34.90
2022-12-23T20:37:07.482Z,35.93
2022-12-23T20:39:34.574Z,33.53
2022-12-23T20:42:01.324Z,29.87
2022-12-23T20:44:36.975Z,31.90
2022-12-23T20:47:07.287Z,29.77
2022-12-23T20:49:34.256Z,30.07
2022-12-23T20:52:01.248Z,28.83
2022-12-23T20:54:33.234Z,29.80
2022-12-23T20:57:02.240Z,29.97
2022-12-23T20:59:29.065Z,29.97
2022-12-23T21:01:56.567Z,29.70
2022-12-23T21:04:23.458Z,32.13
2022-12-23T21:06:50.185Z,29.07
2022-12-23T21:09:17.226Z,27.63
2022-12-23T21:11:46.066Z,31.97
2022-12-23T21:14:14.425Z,28.33
2022-12-23T21:16:42.652Z,27.93
2022-12-23T21:19:16.310Z,33.77
2022-12-23T21:21:43.046Z,36.03
2022-12-23T21:24:10.204Z,32.83
2022-12-23T21:26:37.365Z,34.17
2022-12-23T21:29:07.214Z,32.13
2022-12-23T21:31:38.013Z,32.53
2022-12-23T21:34:05.223Z,33.17
2022-12-23T21:36:36.776Z,29.70
2022-12-23T21:39:05.948Z,26.43
2022-12-23T21:41:37.523Z,28.53
2022-12-23T21:44:05.496Z,27.53
2022-12-23T21:46:32.586Z,29.87
2022-12-23T21:48:59.973Z,30.17
2022-12-23T21:51:39.424Z,30.00
2022-12-23T21:54:08.680Z,27.10
2022-12-23T21:56:35.716Z,29.57
2022-12-23T21:59:06.202Z,33.90
2022-12-23T22:01:33.407Z,28.07
2022-12-23T22:04:00.549Z,30.23
2022-12-23T22:06:40.202Z,33.80
2022-12-23T22:09:08.259Z,30.47
2022-12-23T22:11:36.656Z,30.03
2022-12-23T22:14:06.643Z,30.67
2022-12-23T22:16:35.298Z,32.37
2022-12-23T22:19:03.037Z,28.30
2022-12-23T22:21:31.945Z,28.93
2022-12-23T22:24:00.240Z,29.77
2022-12-23T22:26:31.361Z,32.27
2022-12-23T22:29:02.673Z,35.23
2022-12-23T22:31:41.781Z,33.57
2022-12-23T22:34:14.551Z,36.47
2022-12-23T22:36:41.599Z,39.47
2022-12-23T22:39:12.960Z,40.40
2022-12-23T22:41:42.839Z,37.57
2022-12-23T22:44:13.325Z,42.37
2022-12-23T22:46:41.290Z,43.63
2022-12-23T22:49:10.373Z,40.03
2022-12-23T22:51:37.148Z,36.10
2022-12-23T22:54:04.011Z,37.20
2022-12-23T22:56:30.854Z,41.80
2022-12-23T22:58:57.594Z,41.63
2022-12-23T23:01:32.147Z,40.37
2022-12-23T23:04:01.310Z,42.57
2022-12-23T23:06:34.442Z,43.93
2022-12-23T23:09:01.416Z,42.30
2022-12-23T23:11:28.509Z,41.07
2022-12-23T23:13:55.824Z,38.93
2022-12-23T23:16:23.380Z,42.87
2022-12-23T23:18:51.799Z,40.30
2022-12-23T23:21:19.266Z,42.87
2022-12-23T23:23:46.308Z,41.73
2022-12-23T23:26:13.572Z,43.37
2022-12-23T23:28:41.091Z,43.33
2022-12-23T23:33:55.663Z,39.47
2022-12-23T23:36:22.380Z,41.80
2022-12-23T23:38:49.106Z,40.10
2022-12-23T23:41:20.683Z,36.57
2022-12-23T23:43:50.133Z,42.20
2022-12-23T23:46:16.921Z,39.43
2022-12-23T23:48:43.657Z,36.63
2022-12-23T23:51:10.358Z,33.83
2022-12-23T23:53:37.072Z,34.97
2022-12-23T23:56:06.812Z,34.77
2022-12-23T23:58:35.459Z,29.90
